Latest Weather Observations for Southern Cross Airport

IDW60801

Issued at 10:23 pm WST Tuesday 28 January 2020 (issued every 10 minutes, with the page automatically refreshed every 10 minutes)

About weather observations | Map of weather stations | Latest weather observations for WA | Other Formats
Station Details ID: 012320 Name: SOUTHERN CROSS AIRFIELD Lat: -31.24 Lon: 119.36 Height: 347.4 m
Data from the previous 72 hours. | See also: Recent months at Southern Cross Airport
Date/Time
WST
Temp
°C
App
Temp
°C
Dew
Point
°C
Rel
Hum
%
Delta-T
°C
Wind Press
QNH
hPa
Press
MSL
hPa
Rain since
9am
mm
Dir  Spd
km/h
Gust
km/h
Spd
kts
Gust
kts
28/10:00pm 31.9 29.6 0.1 13 15.7 N 2 7 1 4 1007.1 1005.0 0.0
28/09:30pm 32.2 30.1 -0.8 12 16.0 CALM 0 0 0 0 1007.1 1005.0 0.0
28/09:00pm 32.8 30.6 -1.5 11 16.6 CALM 0 0 0 0 1007.1 1005.0 0.0
28/08:30pm 35.6 33.5 -0.7 10 18.1 CALM 0 0 0 0 1007.0 1004.9 0.0
28/08:00pm 37.0 33.2 -1.1 9 19.1 NNE 9 13 5 7 1006.9 1004.8 0.0
28/07:30pm 38.5 34.2 -1.6 8 20.0 NNE 11 15 6 8 1006.8 1004.7 0.0
28/07:00pm 40.9 36.6 -1.6 7 21.6 N 11 15 6 8 1006.7 1004.6 0.0
28/06:30pm 42.3 36.6 -0.6 7 22.3 N 19 24 10 13 1006.5 1004.4 0.0
28/06:00pm 43.1 38.0 -2.2 6 23.1 N 15 19 8 10 1006.3 1004.1 0.0
28/05:30pm 43.8 38.0 -1.7 6 23.4 NNE 19 26 10 14 1006.3 1004.1 0.0
28/05:00pm 44.5 38.5 -1.2 6 23.9 N 20 39 11 21 1006.3 1004.1 0.0
28/04:30pm 44.2 37.5 -1.4 6 23.6 NNW 24 39 13 21 1006.5 1004.4 0.0
28/04:00pm 44.7 38.0 -1.0 6 23.9 NNW 24 41 13 22 1006.8 1004.7 0.0
28/03:39pm 44.0 37.6 -1.5 6 23.5 NNW 22 35 12 19 1007.1 1005.0 0.0
28/03:30pm 44.1 39.1 -1.5 6 23.6 NW 15 26 8 14 1007.2 1005.1 0.0
28/03:00pm 44.9 39.9 -0.9 6 24.1 NNW 15 32 8 17 1007.4 1005.3 0.0
28/02:30pm 44.7 38.8 -1.0 6 23.9 NNW 20 30 11 16 1007.9 1005.8 0.0
28/02:00pm 44.2 37.8 -1.4 6 23.7 NNW 22 35 12 19 1008.2 1006.1 0.0
28/01:30pm 43.4 37.3 0.1 7 22.8 N 22 37 12 20 1008.8 1006.6 0.0
28/01:00pm 43.1 35.8 -0.1 7 22.7 NNW 28 41 15 22 1009.3 1007.2 0.0
28/12:30pm 42.8 36.2 -0.3 7 22.5 N 24 33 13 18 1009.5 1007.4 0.0
28/12:00pm 42.5 35.1 -0.5 7 22.4 NNW 28 39 15 21 1010.0 1007.9 0.0
28/11:30am 42.3 34.9 -0.6 7 22.3 NNW 28 43 15 23 1010.3 1008.2 0.0
28/11:00am 42.3 34.4 1.2 8 21.9 NNW 32 46 17 25 1010.6 1008.5 0.0
28/10:30am 41.8 34.2 0.8 8 21.7 N 30 41 16 22 1010.9 1008.8 0.0
28/10:12am 41.0 33.4 0.3 8 21.2 N 30 48 16 26 1011.0 1008.9 0.0
28/10:00am 40.1 31.6 1.2 9 20.5 N 35 43 19 23 1011.1 1009.0 0.0
28/09:30am 39.0 30.4 0.4 9 20.0 N 35 48 19 26 1011.4 1009.3 0.0
28/09:00am 37.8 29.9 1.0 10 19.1 N 32 44 17 24 1011.6 1009.4 0.0
28/08:30am 35.1 28.6 4.6 15 16.5 N 28 37 15 20 1011.7 1009.6 0.0
28/08:00am 32.2 28.2 9.1 24 13.2 N 20 26 11 14 1011.9 1009.8 0.0
28/07:30am 30.2 28.4 10.7 30 11.3 NNE 11 17 6 9 1011.8 1009.7 0.0
28/07:00am 26.7 27.8 13.4 43 8.0 CALM 0 0 0 0 1011.8 1009.7 0.0
28/06:30am 24.7 25.7 13.3 49 6.7 CALM 0 0 0 0 1011.8 1009.7 0.0
28/06:00am 23.0 23.9 12.9 53 5.9 CALM 0 6 0 3 1011.4 1009.3 0.0
28/05:30am 21.8 21.3 12.6 56 5.3 S 7 9 4 5 1011.1 1009.0 0.0
28/05:00am 22.4 22.2 12.9 55 5.5 S 6 7 3 4 1010.8 1008.7 0.0
28/04:30am 23.6 22.5 13.2 52 6.1 SSE 11 13 6 7 1010.7 1008.6 0.0
28/04:00am 24.2 23.5 13.1 50 6.5 SSE 9 15 5 8 1010.7 1008.6 0.0
28/03:30am 24.7 24.0 13.3 49 6.7 ESE 9 13 5 7 1010.5 1008.4 0.0
28/03:00am 25.7 23.6 13.5 46 7.3 SE 17 22 9 12 1010.5 1008.4 0.0
28/02:30am 26.4 24.3 13.5 45 7.7 SSE 17 19 9 10 1010.8 1008.7 0.0
28/02:00am 26.9 24.7 13.3 43 8.1 SSE 17 20 9 11 1011.1 1009.0 0.0
28/01:30am 27.0 25.2 13.4 43 8.1 SSE 15 24 8 13 1011.3 1009.2 0.0
28/01:00am 27.8 25.9 13.0 40 8.8 ESE 15 20 8 11 1011.3 1009.2 0.0
28/12:30am 28.3 26.3 11.4 35 9.8 SE 13 19 7 10 1011.4 1009.3 0.0
28/12:00am 29.2 25.1 8.8 28 11.4 SE 20 26 11 14 1011.4 1009.3 0.0
 
Date/Time
WST
Temp
°C
App
Temp
°C
Dew
Point
°C
Rel
Hum
%
Delta-T
°C
Wind Press
QNH
hPa
Press
MSL
hPa
Rain since
9am
mm
Dir  Spd
km/h
Gust
km/h
Spd
kts
Gust
kts
27/11:30pm 29.6 25.6 2.8 18 13.6 SE 13 17 7 9 1011.8 1009.7 0.0
27/11:00pm 28.0 24.4 0.7 17 13.2 SSE 9 15 5 8 1011.7 1009.6 0.0
27/10:30pm 28.8 25.8 0.5 16 13.7 ENE 6 11 3 6 1011.7 1009.6 0.0
27/10:00pm 31.9 27.5 0.1 13 15.7 S 13 13 7 7 1011.4 1009.3 0.0
27/09:30pm 32.2 27.8 0.3 13 15.8 S 13 15 7 8 1011.6 1009.4 0.0
27/09:00pm 32.7 28.4 0.7 13 16.0 S 13 17 7 9 1011.2 1009.1 0.0
27/08:30pm 35.5 30.4 0.6 11 17.7 S 17 19 9 10 1010.9 1008.8 0.0
27/08:00pm 35.9 31.0 -0.5 10 18.2 S 15 17 8 9 1010.6 1008.5 0.0
27/07:30pm 37.1 32.9 -1.0 9 19.1 SW 11 20 6 11 1010.3 1008.2 0.0
27/07:00pm 38.9 34.6 -1.3 8 20.3 WSW 11 13 6 7 1010.1 1008.0 0.0
27/06:30pm 41.3 37.0 -1.4 7 21.8 WSW 11 17 6 9 1010.0 1007.9 0.0
27/06:00pm 42.1 38.0 -2.9 6 22.6 NW 9 17 5 9 1009.9 1007.8 0.0
27/05:30pm 42.1 37.3 -2.9 6 22.5 NW 13 28 7 15 1009.8 1007.7 0.0
27/05:00pm 42.5 38.8 -2.6 6 22.8 W 7 20 4 11 1009.8 1007.7 0.0
27/04:30pm 43.7 37.7 -1.7 6 23.4 W 20 33 11 18 1009.9 1007.8 0.0
27/04:00pm 43.1 37.5 -0.1 7 22.7 SW 19 28 10 15 1010.2 1008.1 0.0
27/03:30pm 43.0 37.8 -0.1 7 22.6 WNW 17 24 9 13 1010.5 1008.4 0.0
27/03:00pm 43.0 37.2 -0.1 7 22.6 WNW 20 30 11 16 1010.6 1008.5 0.0
27/02:30pm 42.9 36.7 -0.2 7 22.6 WNW 22 35 12 19 1011.0 1008.9 0.0
27/02:00pm 42.1 37.5 -0.8 7 22.2 WSW 13 26 7 14 1011.4 1009.3 0.0
27/01:30pm 42.0 37.7 1.0 8 21.7 NW 13 30 7 16 1011.6 1009.4 0.0
27/01:00pm 42.1 36.5 1.1 8 21.8 NNW 20 33 11 18 1012.0 1009.9 0.0
27/12:30pm 40.5 35.8 3.0 10 20.3 NNW 17 33 9 18 1012.6 1010.5 0.0
27/12:00pm 39.6 34.2 2.3 10 19.9 NNW 20 30 11 16 1012.9 1010.8 0.0
27/11:30am 39.1 34.3 5.7 13 18.7 N 20 28 11 15 1013.2 1011.1 0.0
27/11:00am 36.9 32.0 7.0 16 16.9 N 22 33 12 18 1013.6 1011.5 0.0
27/10:30am 35.5 31.7 9.8 21 15.1 N 20 30 11 16 1014.0 1011.9 0.0
27/10:00am 33.4 28.7 9.4 23 13.8 N 24 35 13 19 1014.2 1012.2 0.0
27/09:30am 31.8 28.6 9.9 26 12.6 NNE 17 22 9 12 1014.5 1012.5 0.0
27/09:00am 30.8 28.4 12.7 33 10.9 NE 17 26 9 14 1014.8 1012.7 0.0
27/08:30am 28.7 26.0 13.4 39 9.2 NE 20 26 11 14 1014.9 1012.8 0.0
27/08:00am 26.8 24.9 14.2 46 7.6 E 17 20 9 11 1015.2 1013.1 0.0
27/07:30am 24.7 23.0 14.8 54 6.0 E 17 20 9 11 1015.2 1013.1 0.0
27/07:00am 23.0 21.3 14.8 60 4.9 E 17 22 9 12 1015.3 1013.2 0.0
27/06:30am 22.3 21.0 14.9 63 4.4 ESE 15 19 8 10 1015.2 1013.1 0.0
27/06:00am 21.5 21.2 14.4 64 4.2 ESE 9 11 5 6 1015.0 1012.9 0.0
27/05:30am 20.6 20.1 13.8 65 4.0 SE 9 13 5 7 1014.5 1012.5 0.0
27/05:00am 21.4 21.4 14.1 63 4.3 SE 7 9 4 5 1014.1 1012.0 0.0
27/04:30am 21.7 21.3 14.1 62 4.5 ESE 9 15 5 8 1013.7 1011.6 0.0
27/04:00am 22.2 20.7 14.1 60 4.8 SE 15 19 8 10 1013.7 1011.6 0.0
27/03:30am 22.6 20.6 13.9 58 5.1 SE 17 20 9 11 1013.6 1011.5 0.0
27/03:00am 23.0 20.6 13.8 56 5.4 SE 19 26 10 14 1013.6 1011.5 0.0
27/02:30am 23.4 20.4 13.6 54 5.8 ESE 22 32 12 17 1013.7 1011.6 0.0
27/02:00am 23.9 20.8 13.4 51 6.2 SE 22 32 12 17 1013.9 1011.8 0.0
27/01:30am 24.5 19.8 13.1 49 6.7 SE 30 37 16 20 1014.0 1011.9 0.0
27/01:00am 24.9 19.7 12.8 47 7.1 SE 32 41 17 22 1014.0 1011.9 0.0
27/12:30am 25.4 20.2 12.9 45 7.4 SE 32 41 17 22 1014.2 1012.2 0.0
27/12:00am 25.7 20.3 12.2 43 7.9 SE 32 41 17 22 1014.4 1012.4 0.0
 
Date/Time
WST
Temp
°C
App
Temp
°C
Dew
Point
°C
Rel
Hum
%
Delta-T
°C
Wind Press
QNH
hPa
Press
MSL
hPa
Rain since
9am
mm
Dir  Spd
km/h
Gust
km/h
Spd
kts
Gust
kts
26/11:30pm 26.5 21.0 11.8 40 8.5 SE 32 43 17 23 1014.4 1012.4 0.0
26/11:00pm 27.2 20.7 11.7 38 9.0 SE 37 46 20 25 1014.3 1012.3 0.0
26/10:30pm 27.9 22.2 13.1 40 8.8 SE 35 48 19 26 1014.0 1011.9 0.0
26/10:00pm 28.6 22.4 13.7 40 9.0 SE 39 52 21 28 1013.6 1011.5 0.0
26/09:30pm 30.5 24.9 13.3 35 10.4 SE 35 46 19 25 1013.2 1011.1 0.0
26/09:21pm 30.9 24.7 12.8 33 10.9 SE 37 46 20 25 1013.1 1011.0 0.0
26/09:00pm 32.4 27.2 2.5 15 15.4 S 19 37 10 20 1012.7 1010.6 0.0
26/08:30pm 32.8 27.9 1.8 14 15.8 S 17 17 9 9 1012.3 1010.2 0.0
26/08:00pm 33.4 28.8 1.3 13 16.3 S 15 17 8 9 1012.1 1010.0 0.0
26/07:30pm 35.5 30.6 1.8 12 17.4 S 17 19 9 10 1011.9 1009.8 0.0
26/07:00pm 36.7 32.3 0.1 10 18.6 S 13 17 7 9 1011.6 1009.4 0.0
26/06:30pm 38.1 33.1 1.2 10 19.2 S 17 22 9 12 1011.1 1009.0 0.0
26/06:00pm 38.5 32.6 1.5 10 19.4 SSW 22 28 12 15 1011.0 1008.9 0.0
26/05:30pm 39.2 35.2 0.6 9 20.0 WSW 11 20 6 11 1010.8 1008.7 0.0
26/05:00pm 39.2 34.8 0.6 9 20.1 SSW 13 22 7 12 1010.8 1008.7 0.0
26/04:30pm 39.3 34.2 0.6 9 20.1 S 17 28 9 15 1010.9 1008.8 0.0
26/04:00pm 39.2 34.1 0.6 9 20.1 SSW 17 32 9 17 1010.9 1008.8 0.0
26/03:30pm 39.5 35.7 -0.8 8 20.5 NNE 9 15 5 8 1011.3 1009.2 0.0
26/03:00pm 39.0 34.8 1.9 10 19.6 W 13 19 7 10 1011.7 1009.6 0.0
26/02:30pm 38.5 34.7 1.5 10 19.4 NNE 11 20 6 11 1011.8 1009.7 0.0
26/02:00pm 38.4 35.2 2.8 11 19.0 WSW 9 15 5 8 1012.1 1010.0 0.0
26/01:30pm 38.0 33.6 4.8 13 18.2 WSW 17 28 9 15 1012.5 1010.4 0.0
26/01:00pm 37.3 33.2 6.3 15 17.4 NNW 17 28 9 15 1012.9 1010.8 0.0
26/12:30pm 36.5 33.5 7.5 17 16.5 WNW 13 28 7 15 1013.3 1011.2 0.0
26/12:00pm 35.7 32.0 9.3 20 15.4 N 19 26 10 14 1013.8 1011.7 0.0
26/11:30am 35.7 32.1 10.0 21 15.1 NNW 19 24 10 13 1014.0 1011.9 0.0
26/11:00am 33.6 30.8 11.5 26 13.2 N 17 26 9 14 1014.5 1012.5 0.0
26/10:30am 32.1 28.6 10.8 27 12.5 N 20 32 11 17 1015.0 1012.9 0.0
26/10:00am 31.5 28.3 11.3 29 11.9 NNE 19 28 10 15 1015.1 1013.0 0.0
26/09:30am 30.3 27.8 12.2 33 10.8 NE 17 22 9 12 1015.3 1013.2 0.0
26/09:00am 29.1 26.9 12.1 35 10.0 ENE 15 24 8 13 1015.6 1013.5 0.0
26/08:30am 27.2 25.0 13.2 42 8.4 E 17 26 9 14 1015.9 1013.8 0.0
26/08:00am 25.2 22.7 13.4 48 7.0 E 19 24 10 13 1016.1 1014.0 0.0
26/07:30am 23.8 21.1 13.6 52 6.0 E 20 28 11 15 1016.1 1014.0 0.0
26/07:00am 22.8 21.1 13.6 56 5.4 ESE 15 20 8 11 1016.2 1014.1 0.0
26/06:30am 21.7 19.6 13.6 60 4.8 ESE 17 22 9 12 1016.1 1014.0 0.0
26/06:00am 20.8 19.1 13.5 63 4.3 ESE 15 22 8 12 1015.9 1013.8 0.0
26/05:30am 20.6 18.5 13.6 64 4.1 SE 17 22 9 12 1015.8 1013.7 0.0
26/05:00am 20.7 18.9 13.4 63 4.2 SE 15 19 8 10 1015.6 1013.5 0.0
26/04:30am 21.0 18.8 13.4 62 4.4 SE 17 22 9 12 1015.2 1013.1 0.0
26/04:00am 21.3 18.6 13.5 61 4.6 ESE 20 28 11 15 1014.8 1012.7 0.0
26/03:30am 21.4 18.0 13.6 61 4.6 ESE 24 35 13 19 1014.4 1012.4 0.0
26/03:00am 21.7 18.3 13.6 60 4.8 ESE 24 33 13 18 1014.5 1012.5 0.0
26/02:30am 22.1 18.6 13.5 58 5.0 SE 24 33 13 18 1014.5 1012.5 0.0
26/02:00am 22.6 18.8 13.7 57 5.2 SE 26 32 14 17 1014.7 1012.6 0.0
26/01:30am 23.3 19.2 13.8 55 5.6 SE 28 37 15 20 1014.5 1012.5 0.0
26/01:00am 23.8 20.1 13.9 54 5.9 SE 26 32 14 17 1014.4 1012.4 0.0
26/12:30am 24.3 20.3 14.1 53 6.1 SE 28 35 15 19 1014.3 1012.3 0.0
26/12:00am 24.7 20.6 13.9 51 6.4 SE 28 35 15 19 1014.2 1012.2 0.0
 
Date/Time
WST
Temp
°C
App
Temp
°C
Dew
Point
°C
Rel
Hum
%
Delta-T
°C
Wind Press
QNH
hPa
Press
MSL
hPa
Rain since
9am
mm
Dir  Spd
km/h
Gust
km/h
Spd
kts
Gust
kts
25/11:30pm 25.5 20.7 14.0 49 6.9 SE 32 39 17 21 1014.0 1011.9 0.0
25/11:00pm 26.5 21.7 13.9 45 7.6 SE 32 41 17 22 1013.9 1011.8 0.0
25/10:30pm 28.2 23.9 10.9 34 10.0 SE 24 35 13 19 1013.9 1011.8 0.0

Other formats

Comma delimited format used in spreadsheet applications
http://www.bom.gov.au/fwo/IDW60801/IDW60801.95634.axf

JavaScript Object Notation format (JSON) in row-major order
http://www.bom.gov.au/fwo/IDW60801/IDW60801.95634.json

Data quality

Most of these data are generated automatically and are frequently updated. Quality checks on data are not normally performed. It is possible for incorrect values to appear. Refer to information at About Latest Weather Observations and please check the disclaimer before using these data.